Terminal Aerodrome Forecast
Issued by NWS Newport/Morehead City, NC

Home | Current Version | Previous Version | Text Only | Print | Product List | Glossary On
Versions: 1 2 3 4 5 6 7 8 9 10 11 12 13 14 15 16 17 18
000
FTUS42 KMHX 251137
TAFEWN
TAF
KEWN 251137Z 2512/2612 00000KT 1/2SM FG OVC002
     FM251300 00000KT 5SM BR SCT250
      TEMPO 2513/2514 1 1/2SM BR BKN009
     FM251600 21011G22KT P6SM SCT200
     FM260200 30010G20KT P6SM SCT250
     FM260900 32008KT P6SM SKC=

USA.gov is the U.S. government's official web portal to all federal, state and local government web resources and services.